Kyokuho Maru No.15 — JI3715 — position and weather

sailwx.info

Track history (hours):
 
Tides and Currents Weather Stations Pressure Air Temp Water Temp Dewpoint Dewpoint Depression Visibility Wind Speed Wind Dir Waves Ship Positions

Kyokuho Maru No.15

Last reported at 2015-Sep-01 16:06 UTC. Time now 2015-Sep-02 06:30 UTC.
Position N 34°35' E 134°52'.

Length 63 m; draft 3.2 m.

Type: Tanker. MMSI: 431301714.

Date/timePositionNaut miles runAvg speedWind from/ knotsBaromVisibWave heightAir tempDewpointWater temp
2015-Sep-01 16:06N 34°35' E 134°52'712.3
2015-Sep-01 15:32N 34°38' E 134°60'1212.0
2015-Sep-01 14:33N 34°34' E 135°13'10 1.2
2015-Sep-01 06:24N 34°31' E 135°24'2 2.8
2015-Sep-01 05:33N 34°32' E 135°22'3 0.4
2015-Aug-31 23:20N 34°32' E 135°25'3 3.8
2015-Aug-31 22:33N 34°33' E 135°22'0 0.0
2015-Aug-31 21:26N 34°33' E 135°22'8 9.3
2015-Aug-31 20:33N 34°34' E 135°12'1313.0
2015-Aug-31 19:32N 34°36' E 134°56'  
2015-Aug-27 06:31N 35°01' E 140°11'21 9.6
2015-Aug-27 04:20N 35°15' E 140°30'42 8.5
2015-Aug-26 23:25N 35°55' E 140°42'2 0.3
2015-Aug-26 18:18N 35°54' E 140°41'0 0.0
2015-Aug-25 16:06N 35°54' E 140°41'  
2015-Aug-22 17:22N 35°54' E 140°41'  
Track history (hours):
 
Tides and Currents Weather Stations Pressure Air Temp Water Temp Dewpoint Dewpoint Depression Visibility Wind Speed Wind Dir Waves Ship Positions

Kyokuho Maru No.15

Last reported at 2015-Sep-01 16:06 UTC. Time now 2015-Sep-02 06:30 UTC.
Position N 34°35' E 134°52'.

Length 63 m; draft 3.2 m.

Type: Tanker. MMSI: 431301714.

Date/timePositionNaut miles runAvg speedWind from/ knotsBaromVisibWave heightAir tempDewpointWater temp
2015-Sep-01 16:06N 34°35' E 134°52'712.3
2015-Sep-01 15:32N 34°38' E 134°60'1212.0
2015-Sep-01 14:33N 34°34' E 135°13'10 1.2
2015-Sep-01 06:24N 34°31' E 135°24'2 2.8
2015-Sep-01 05:33N 34°32' E 135°22'3 0.4
2015-Aug-31 23:20N 34°32' E 135°25'3 3.8
2015-Aug-31 22:33N 34°33' E 135°22'0 0.0
2015-Aug-31 21:26N 34°33' E 135°22'8 9.3
2015-Aug-31 20:33N 34°34' E 135°12'1313.0
2015-Aug-31 19:32N 34°36' E 134°56'  
2015-Aug-27 06:31N 35°01' E 140°11'21 9.6
2015-Aug-27 04:20N 35°15' E 140°30'42 8.5
2015-Aug-26 23:25N 35°55' E 140°42'2 0.3
2015-Aug-26 18:18N 35°54' E 140°41'0 0.0
2015-Aug-25 16:06N 35°54' E 140°41'  
2015-Aug-22 17:22N 35°54' E 140°41'  

Dump ship's entire track history